WetterOnline ( https://www.wetteronline.de )

Wetter aktuell Rheinstetten

Aktuelles Wetter: Rheinstetten (116m)

6-stündlich | Neueste Meldungen
Ortszeit Temperatur Wetter
So, 29.05. 8:00 10.4° C leichter Regen
So, 29.05. 2:00 13.6° C wolkig
Sa, 28.05. 20:00 16.7° C wolkig
Sa, 28.05. 14:00 17.3° C wolkig
Sa, 28.05. 8:00 13.2° C leicht bewölkt
Sa, 28.05. 2:00 14.9° C bewölkt
Fr, 27.05. 20:00 18.7° C leicht bewölkt
Fr, 27.05. 14:00 17.8° C bewölkt
Ortszeit Temperatur Wetter
So, 29.05. 10:30 10.5° C leichter Regen
So, 29.05. 10:20 10.5° C leichter Regen
So, 29.05. 10:10 10.4° C leichter Regen
So, 29.05. 10:00 10.5° C Regen
So, 29.05. 9:50 10.5° C Sprühregen
So, 29.05. 9:40 10.7° C leichter Regen
So, 29.05. 9:30 10.7° C leichter Regen
So, 29.05. 9:00 11.3° C leicht bewölkt
So, 29.05. 8:30 10.6° C bewölkt
So, 29.05. 8:00 10.4° C leichter Regen
So, 29.05. 7:30 10.9° C bewölkt
Ortszeit Relative Feuchte Sichtweite
So, 29.05. 8:00 69% 28 km
So, 29.05. 2:00 46% 60 km
Sa, 28.05. 20:00 40% 65 km
Sa, 28.05. 14:00 38% 60 km
Sa, 28.05. 8:00 56% 45 km
Sa, 28.05. 2:00 47% 45 km
Fr, 27.05. 20:00 59% >70 km
Fr, 27.05. 14:00 60% 60 km
Ortszeit Relative Feuchte Sichtweite
So, 29.05. 10:30 76% 29 km
So, 29.05. 10:20 76% -
So, 29.05. 10:10 79% -
So, 29.05. 10:00 75% 40 km
So, 29.05. 9:50 75% -
So, 29.05. 9:40 80% -
So, 29.05. 9:30 74% 18 km
So, 29.05. 9:00 69% 40 km
So, 29.05. 8:30 72% 40 km
So, 29.05. 8:00 69% 28 km
So, 29.05. 7:30 66% 45 km
Ortszeit Niederschlagsmenge Niederschlagsart
So, 29.05. 8:00 0.1 l/m2 in 12 Std. Regen
So, 29.05. 2:00 0.1 l/m2 in 6 Std. Regen
Sa, 28.05. 20:00 0.0 l/m2 in 12 Std. -
Sa, 28.05. 14:00 0.0 l/m2 in 6 Std. -
Sa, 28.05. 8:00 0.1 l/m2 in 12 Std. -
Sa, 28.05. 2:00 0.1 l/m2 in 6 Std. Regen
Fr, 27.05. 20:00 0.0 l/m2 in 12 Std. -
Fr, 27.05. 14:00 0.0 l/m2 in 6 Std. -
Ortszeit Niederschlagsmenge Niederschlagsart
So, 29.05. 10:30 0.3 l/m2 in 1 Std. -
So, 29.05. 10:20 keine Meldung -
So, 29.05. 10:10 keine Meldung -
So, 29.05. 10:00 0.3 l/m2 in 1 Std. Regen
So, 29.05. 9:50 keine Meldung -
So, 29.05. 9:40 keine Meldung -
So, 29.05. 9:30 0.1 l/m2 in 1 Std. -
So, 29.05. 9:00 0.1 l/m2 in 1 Std. Regen
So, 29.05. 8:30 0.1 l/m2 in 1 Std. Schneeregen
So, 29.05. 8:00 0.1 l/m2 in 1 Std. Regen
So, 29.05. 7:30 0.0 l/m2 in 1 Std. -
Ortszeit Stärke Spitze Richtung
km/h Bft. km/h Grad Sektor
So, 29.05. 8:00 15 3 26 360° N
So, 29.05. 2:00 9 2 22 360° N
Sa, 28.05. 20:00 9 2 24 360° N
Sa, 28.05. 14:00 7 2 22 350° N
Sa, 28.05. 8:00 6 1 28 340° N
Sa, 28.05. 2:00 18 3 32 20° N
Fr, 27.05. 20:00 22 4 36 230° SW
Fr, 27.05. 14:00 26 4 46 240° SW
Ortszeit Stärke Spitze Richtung
km/h Bft. km/h Grad Sektor
So, 29.05. 10:30 7 2 18 30° NO
So, 29.05. 10:20 7 2 - 30° NO
So, 29.05. 10:10 7 2 - 60° NO
So, 29.05. 10:00 11 2 18 40° NO
So, 29.05. 9:50 11 2 - 40° NO
So, 29.05. 9:40 6 1 - 30° NO
So, 29.05. 9:30 13 3 19 30° NO
So, 29.05. 9:00 4 1 18 310° NW
So, 29.05. 8:30 9 2 19 340° N
So, 29.05. 8:00 15 3 24 360° N
So, 29.05. 7:30 11 2 18 10° N
Ortszeit Untergrenze Bedeckung Gattung
total tief tief mittel hoch
So, 29.05. 8:00 1500 m 7/8 7/8 - - -
So, 29.05. 2:00 2100 m 7/8 5/8 - - -
Sa, 28.05. 20:00 3000 m 5/8 5/8 - - -
Sa, 28.05. 14:00 1500 m 6/8 6/8 - - -
Sa, 28.05. 8:00 8100 m 7/8 0/8 - - -
Sa, 28.05. 2:00 1200 m 7/8 7/8 - - -
Fr, 27.05. 20:00 1140 m 5/8 1/8 - - -
Fr, 27.05. 14:00 1170 m 7/8 7/8 - - -
Ortszeit Bedeckungsgrad in Achtel und Wolkenuntergrenze
So, 29.05. 10:30 1(750m) 4(1140m) 5(1800m)
So, 29.05. 10:20 1(750m) 4(1140m) 5(1800m)
So, 29.05. 10:10 7
So, 29.05. 10:00 2(840m) 6(1500m) 7(1800m)
So, 29.05. 9:50 2(840m) 6(1500m) 7(1800m)
So, 29.05. 9:40 5
So, 29.05. 9:30 6(1170m)
So, 29.05. 9:00 1(1500m)
So, 29.05. 8:30 1(1500m) 7(2100m)
So, 29.05. 8:00 7(1500m) 7(2100m)
So, 29.05. 7:30 7(1500m) 7(2100m)
Ortszeit Luftdruck NN (hPa) Tendenz (hPa in 3 Std.)
So, 29.05. 8:00 1014 0,0
So, 29.05. 2:00 1015 - 1,5
Sa, 28.05. 20:00 1017 - 1,1
Sa, 28.05. 14:00 1020 - 1,6
Sa, 28.05. 8:00 1023 + 0,7
Sa, 28.05. 2:00 1022 + 0,2
Fr, 27.05. 20:00 1021 - 1,2
Fr, 27.05. 14:00 1023 - 0,7
Ortszeit Luftdruck NN (hPa) Tendenz (hPa in 3 Std.)
So, 29.05. 10:30 1015 + 0,7
So, 29.05. 10:20 1015 keine Meldung
So, 29.05. 10:10 1015 keine Meldung
So, 29.05. 10:00 1015 + 0,6
So, 29.05. 9:50 1015 keine Meldung
So, 29.05. 9:40 1015 keine Meldung
So, 29.05. 9:30 1015 + 0,8
So, 29.05. 9:00 1015 + 0,7
So, 29.05. 8:30 1015 + 0,7
So, 29.05. 8:00 1014 0,0
So, 29.05. 7:30 1014 - 0,3
Ortszeit Schneehöhe (cm)
So, 29.05. 8:00 0
So, 29.05. 2:00 0
Sa, 28.05. 20:00 0
Sa, 28.05. 14:00 0
Sa, 28.05. 8:00 0
Sa, 28.05. 2:00 0
Fr, 27.05. 20:00 0
Fr, 27.05. 14:00 0
Ortszeit Schneehöhe (cm)
So, 29.05. 10:30 0
So, 29.05. 10:20 0
So, 29.05. 10:10 0
So, 29.05. 10:00 0
So, 29.05. 9:50 0
So, 29.05. 9:40 0
So, 29.05. 9:30 0
So, 29.05. 9:00 0
So, 29.05. 8:30 0
So, 29.05. 8:00 0
So, 29.05. 7:30 0
Link zu dieser Seite / Seite empfehlen

Das Wetter in ...